createdAt,value
2022-09-26T00:01:31.803Z,99744.47
2022-09-26T00:04:01.577Z,99728.16
2022-09-26T00:06:29.222Z,99725.59
2022-09-26T00:08:56.617Z,99729.31
2022-09-26T00:11:29.614Z,99727.41
2022-09-26T00:13:59.605Z,99726.06
2022-09-26T00:16:27.430Z,99731.84
2022-09-26T00:18:59.035Z,99727.19
2022-09-26T00:21:27.695Z,99722.22
2022-09-26T00:23:55.108Z,99712.84
2022-09-26T00:26:24.004Z,99713.72
2022-09-26T00:28:51.373Z,99718.13
2022-09-26T00:31:23.200Z,99729.69
2022-09-26T00:33:50.038Z,99721.66
2022-09-26T00:36:17.269Z,99714.78
2022-09-26T00:38:45.246Z,99705.03
2022-09-26T00:41:12.824Z,99708.28
2022-09-26T00:43:43.951Z,99701.19
2022-09-26T00:46:16.950Z,99690.22
2022-09-26T00:48:48.075Z,99690.13
2022-09-26T00:51:15.297Z,99688.56
2022-09-26T00:53:46.961Z,99689.91
2022-09-26T00:56:36.189Z,99681.84
2022-09-26T00:59:19.982Z,99668.59
2022-09-26T01:01:46.829Z,99671.25
2022-09-26T01:04:16.445Z,99665.34
2022-09-26T01:06:45.486Z,99667.88
2022-09-26T01:09:14.790Z,99663.44
2022-09-26T01:11:43.245Z,99661.03
2022-09-26T01:14:12.551Z,99654.06
2022-09-26T01:16:41.243Z,99657.28
2022-09-26T01:19:29.116Z,99656.94
2022-09-26T01:22:44.434Z,99658.88
2022-09-26T01:25:27.109Z,99658.25
2022-09-26T01:28:12.648Z,99666.09
2022-09-26T01:31:16.532Z,99673.28
2022-09-26T01:34:10.470Z,99660.19
2022-09-26T01:36:43.140Z,99647.78
2022-09-26T01:39:28.383Z,99643.34
2022-09-26T01:42:10.497Z,99648.50
2022-09-26T01:44:48.629Z,99648.50
2022-09-26T01:47:23.674Z,99641.06
2022-09-26T01:50:38.500Z,99640.31
2022-09-26T01:53:12.043Z,99649.69
2022-09-26T01:55:43.361Z,99637.22
2022-09-26T01:58:30.876Z,99630.34
2022-09-26T02:01:02.256Z,99639.97
2022-09-26T02:03:36.237Z,99625.78
2022-09-26T02:06:09.264Z,99616.63
2022-09-26T02:08:39.044Z,99608.81
2022-09-26T02:11:17.301Z,99618.56
2022-09-26T02:13:56.946Z,99616.63
2022-09-26T02:16:32.322Z,99618.38
2022-09-26T02:19:13.604Z,99612.66
2022-09-26T02:21:41.590Z,99606.25
2022-09-26T02:24:08.491Z,99610.28
2022-09-26T02:26:35.260Z,99603.28
2022-09-26T02:29:02.115Z,99593.44
2022-09-26T02:31:35.597Z,99589.94
2022-09-26T02:34:04.366Z,99602.69
2022-09-26T02:36:34.607Z,99599.56
2022-09-26T02:39:02.193Z,99611.47
2022-09-26T02:41:57.445Z,99627.00
2022-09-26T02:44:42.291Z,99640.81
2022-09-26T02:47:18.466Z,99628.91
2022-09-26T02:50:08.420Z,99611.19
2022-09-26T02:52:44.052Z,99595.56
2022-09-26T02:55:23.947Z,99602.44
2022-09-26T02:58:26.616Z,99608.56
2022-09-26T03:01:12.216Z,99597.63
2022-09-26T03:03:50.705Z,99588.34
2022-09-26T03:06:23.015Z,99595.72
2022-09-26T03:08:51.715Z,99601.38
2022-09-26T03:11:24.049Z,99596.44
2022-09-26T03:13:54.015Z,99597.75
2022-09-26T03:16:23.762Z,99601.63
2022-09-26T03:18:56.534Z,99591.03
2022-09-26T03:21:27.911Z,99591.97
2022-09-26T03:23:56.327Z,99584.53
2022-09-26T03:26:24.753Z,99574.44
2022-09-26T03:28:52.731Z,99575.41
2022-09-26T03:31:22.093Z,99585.50
2022-09-26T03:33:49.149Z,99581.19
2022-09-26T03:36:16.381Z,99579.22
2022-09-26T03:38:43.157Z,99572.53
2022-09-26T03:41:10.067Z,99558.56
2022-09-26T03:43:37.191Z,99554.97
2022-09-26T03:46:06.245Z,99550.53
2022-09-26T03:48:34.375Z,99542.81
2022-09-26T03:51:11.354Z,99536.69
2022-09-26T03:53:40.764Z,99535.50
2022-09-26T03:56:13.470Z,99541.84
2022-09-26T03:58:40.491Z,99542.69
2022-09-26T04:01:11.507Z,99528.25
2022-09-26T04:03:45.159Z,99532.00
2022-09-26T04:06:19.420Z,99529.38
2022-09-26T04:08:48.823Z,99524.91
2022-09-26T04:11:19.156Z,99522.38
2022-09-26T04:13:51.885Z,99517.06
2022-09-26T04:16:23.854Z,99521.28
2022-09-26T04:18:56.778Z,99518.66
2022-09-26T04:21:27.178Z,99521.28
2022-09-26T04:23:54.719Z,99516.09
2022-09-26T04:26:24.235Z,99510.22
2022-09-26T04:28:54.956Z,99512.47
2022-09-26T04:31:27.577Z,99509.13
2022-09-26T04:33:55.414Z,99504.19
2022-09-26T04:36:23.020Z,99505.25
2022-09-26T04:38:49.787Z,99502.84
2022-09-26T04:41:19.427Z,99502.28
2022-09-26T04:43:46.546Z,99515.50
2022-09-26T04:46:20.858Z,99517.06
2022-09-26T04:48:49.947Z,99520.06
2022-09-26T04:51:18.439Z,99512.13
2022-09-26T04:53:45.352Z,99514.78
2022-09-26T04:56:14.837Z,99499.72
2022-09-26T04:58:43.451Z,99503.47
2022-09-26T05:01:16.719Z,99515.75
2022-09-26T05:03:44.286Z,99516.84
2022-09-26T05:06:12.495Z,99523.69
2022-09-26T05:08:46.355Z,99513.69
2022-09-26T05:11:15.385Z,99516.75
2022-09-26T05:13:42.960Z,99524.47
2022-09-26T05:16:10.513Z,99520.75
2022-09-26T05:18:39.174Z,99509.47
2022-09-26T05:21:07.539Z,99507.63
2022-09-26T05:23:53.736Z,99512.97
2022-09-26T05:26:20.675Z,99511.88
2022-09-26T05:29:07.693Z,99499.53
2022-09-26T05:31:37.740Z,99489.59
2022-09-26T05:34:18.354Z,99493.66
2022-09-26T05:36:47.277Z,99498.22
2022-09-26T05:39:32.681Z,99500.38
2022-09-26T05:42:00.086Z,99485.03
2022-09-26T05:44:27.502Z,99494.22
2022-09-26T05:46:56.374Z,99499.81
2022-09-26T05:49:23.554Z,99494.44
2022-09-26T05:51:50.279Z,99503.59
2022-09-26T05:54:18.335Z,99519.38
2022-09-26T05:56:45.214Z,99525.84
2022-09-26T05:59:12.341Z,99518.44
2022-09-26T06:01:39.526Z,99520.00
2022-09-26T06:04:06.486Z,99517.59
2022-09-26T06:06:33.770Z,99510.00
2022-09-26T06:09:01.924Z,99497.94
2022-09-26T06:11:30.787Z,99495.63
2022-09-26T06:13:59.570Z,99495.66
2022-09-26T06:16:27.028Z,99483.72
2022-09-26T06:18:55.571Z,99484.16
2022-09-26T06:21:23.303Z,99475.22
2022-09-26T06:23:50.083Z,99464.94
2022-09-26T06:26:21.264Z,99471.59
2022-09-26T06:28:50.351Z,99470.63
2022-09-26T06:31:19.912Z,99483.22
2022-09-26T06:33:53.205Z,99476.56
2022-09-26T06:36:21.848Z,99475.88
2022-09-26T06:38:49.140Z,99481.09
2022-09-26T06:41:16.643Z,99484.97
2022-09-26T06:43:47.642Z,99485.28
2022-09-26T06:46:16.059Z,99492.50
2022-09-26T06:48:43.241Z,99499.88
2022-09-26T06:51:14.016Z,99503.50
2022-09-26T06:53:44.594Z,99504.56
2022-09-26T06:56:12.218Z,99495.81
2022-09-26T06:58:39.354Z,99489.88
2022-09-26T07:01:07.008Z,99481.09
2022-09-26T07:03:33.936Z,99477.28
2022-09-26T07:06:08.203Z,99485.22
2022-09-26T07:09:00.995Z,99483.03
2022-09-26T07:14:10.604Z,99485.50
2022-09-26T07:16:37.425Z,99488.06
2022-09-26T07:19:04.815Z,99494.53
2022-09-26T07:21:32.042Z,99491.63
2022-09-26T07:23:58.866Z,99483.88
2022-09-26T07:26:25.845Z,99487.94
2022-09-26T07:28:54.866Z,99477.38
2022-09-26T07:31:23.699Z,99482.28
2022-09-26T07:33:50.891Z,99485.78
2022-09-26T07:36:18.483Z,99483.69
2022-09-26T07:38:49.426Z,99495.72
2022-09-26T07:41:17.546Z,99502.38
2022-09-26T07:46:53.046Z,99528.84
2022-09-26T07:49:38.858Z,99515.06
2022-09-26T07:52:06.001Z,99515.41
2022-09-26T07:54:32.813Z,99519.63
2022-09-26T07:56:59.587Z,99525.53
2022-09-26T07:59:28.101Z,99528.63
2022-09-26T08:01:54.936Z,99531.31
2022-09-26T08:04:21.773Z,99524.13
2022-09-26T08:06:50.153Z,99527.31
2022-09-26T08:09:18.342Z,99515.88
2022-09-26T08:11:45.172Z,99509.28
2022-09-26T08:14:12.332Z,99509.16
2022-09-26T08:16:41.556Z,99528.44
2022-09-26T08:19:11.831Z,99529.13
2022-09-26T08:21:38.829Z,99514.81
2022-09-26T08:24:05.726Z,99513.69
2022-09-26T08:26:32.654Z,99510.34
2022-09-26T08:29:00.014Z,99515.97
2022-09-26T08:31:26.894Z,99510.50
2022-09-26T08:33:54.060Z,99523.84
2022-09-26T08:36:21.550Z,99527.38
2022-09-26T08:38:50.121Z,99523.22
2022-09-26T08:41:25.571Z,99522.16
2022-09-26T08:44:11.305Z,99519.28
2022-09-26T08:47:02.321Z,99521.31
2022-09-26T08:49:48.473Z,99521.13
2022-09-26T08:52:49.847Z,99514.03
2022-09-26T08:55:20.325Z,99523.28
2022-09-26T08:58:00.679Z,99523.28
2022-09-26T09:00:32.337Z,99516.56
2022-09-26T09:03:04.189Z,99525.63
2022-09-26T09:05:58.722Z,99527.31
2022-09-26T09:08:28.329Z,99533.59
2022-09-26T09:11:13.924Z,99533.66
2022-09-26T09:13:59.162Z,99531.72
2022-09-26T09:16:29.035Z,99531.28
2022-09-26T09:19:06.439Z,99528.09
2022-09-26T09:22:01.286Z,99526.94
2022-09-26T09:24:56.313Z,99521.09
2022-09-26T09:27:54.426Z,99516.66
2022-09-26T09:30:23.867Z,99517.56
2022-09-26T09:32:58.407Z,99508.81
2022-09-26T09:35:43.603Z,99511.91
2022-09-26T09:38:16.708Z,99511.84
2022-09-26T09:40:50.889Z,99512.31
2022-09-26T09:43:36.547Z,99499.66
2022-09-26T09:46:11.585Z,99501.91
2022-09-26T09:48:38.579Z,99502.00
2022-09-26T09:51:17.620Z,99492.63
2022-09-26T09:54:26.729Z,99502.38
2022-09-26T09:57:31.147Z,99497.97
2022-09-26T10:00:24.698Z,99495.44
2022-09-26T10:03:02.241Z,99497.28
2022-09-26T10:05:35.347Z,99490.38
2022-09-26T10:08:03.540Z,99496.63
2022-09-26T10:10:55.632Z,99494.44
2022-09-26T10:13:25.854Z,99488.94
2022-09-26T10:16:15.467Z,99493.44
2022-09-26T10:19:05.595Z,99490.72
2022-09-26T10:21:39.439Z,99490.28
2022-09-26T10:24:07.411Z,99500.38
2022-09-26T10:26:36.821Z,99499.56
2022-09-26T10:29:21.373Z,99494.72
2022-09-26T10:31:56.377Z,99490.56
2022-09-26T10:34:30.747Z,99483.56
2022-09-26T10:37:17.903Z,99481.53
2022-09-26T10:40:11.274Z,99499.50
2022-09-26T10:42:38.713Z,99498.56
2022-09-26T10:45:14.136Z,99493.78
2022-09-26T10:47:45.377Z,99488.41
2022-09-26T10:50:18.051Z,99486.41
2022-09-26T10:52:49.743Z,99488.31
2022-09-26T10:55:20.892Z,99493.44
2022-09-26T10:57:54.067Z,99488.19
2022-09-26T11:00:36.910Z,99492.47
2022-09-26T11:03:07.378Z,99491.13
2022-09-26T11:05:58.213Z,99487.72
2022-09-26T11:08:26.314Z,99486.84
2022-09-26T11:10:54.955Z,99494.44
2022-09-26T11:13:24.434Z,99495.97
2022-09-26T11:16:14.029Z,99507.84
2022-09-26T11:19:02.791Z,99521.25
2022-09-26T11:21:42.525Z,99520.28
2022-09-26T11:24:30.901Z,99512.13
2022-09-26T11:27:05.519Z,99508.22
2022-09-26T11:29:41.818Z,99506.72
2022-09-26T11:32:28.410Z,99505.22
2022-09-26T11:35:02.179Z,99500.88
2022-09-26T11:38:05.748Z,99497.59
2022-09-26T11:41:04.469Z,99492.50
2022-09-26T11:44:05.078Z,99485.50
2022-09-26T11:47:09.465Z,99495.41
2022-09-26T11:49:46.103Z,99494.63
2022-09-26T11:52:34.442Z,99491.69
2022-09-26T11:55:24.305Z,99491.13
2022-09-26T11:58:03.176Z,99491.00
2022-09-26T12:00:49.226Z,99498.75
2022-09-26T12:03:50.098Z,99491.66
2022-09-26T12:07:05.411Z,99491.97
2022-09-26T12:10:04.382Z,99491.59
2022-09-26T12:12:41.457Z,99488.72
2022-09-26T12:15:26.356Z,99484.00
2022-09-26T12:18:29.425Z,99462.22
2022-09-26T12:21:26.971Z,99462.03
2022-09-26T12:23:57.535Z,99463.34
2022-09-26T12:26:44.229Z,99450.47
2022-09-26T12:29:27.435Z,99446.28
2022-09-26T12:32:04.416Z,99445.75
2022-09-26T12:35:07.284Z,99443.19
2022-09-26T12:37:59.439Z,99441.50
2022-09-26T12:40:36.217Z,99435.81
2022-09-26T12:43:50.459Z,99440.31
2022-09-26T12:46:26.361Z,99428.38
2022-09-26T12:49:45.061Z,99426.03
2022-09-26T12:52:23.840Z,99436.28
2022-09-26T12:55:18.323Z,99416.00
2022-09-26T12:58:03.813Z,99420.53
2022-09-26T13:00:38.802Z,99414.75
2022-09-26T13:03:17.760Z,99408.56
2022-09-26T13:06:18.564Z,99411.66
2022-09-26T13:08:58.525Z,99417.53
2022-09-26T13:11:57.568Z,99413.91
2022-09-26T13:14:57.369Z,99411.88
2022-09-26T13:17:42.089Z,99412.69
2022-09-26T13:20:36.622Z,99418.22
2022-09-26T13:23:11.036Z,99424.44
2022-09-26T13:26:14.517Z,99417.75
2022-09-26T13:29:16.706Z,99419.28
2022-09-26T13:31:55.280Z,99424.63
2022-09-26T13:34:37.516Z,99428.13
2022-09-26T13:37:09.942Z,99436.97
2022-09-26T13:39:49.548Z,99425.28
2022-09-26T13:42:38.933Z,99419.09
2022-09-26T13:45:22.862Z,99418.91
2022-09-26T13:47:59.965Z,99413.22
2022-09-26T13:50:50.282Z,99423.41
2022-09-26T13:53:25.131Z,99429.06
2022-09-26T13:56:34.051Z,99434.63
2022-09-26T13:59:23.130Z,99428.84
2022-09-26T14:02:26.468Z,99419.97
2022-09-26T14:05:13.742Z,99408.06
2022-09-26T14:07:58.970Z,99400.00
2022-09-26T14:10:33.602Z,99397.03
2022-09-26T14:13:08.976Z,99409.38
2022-09-26T14:15:48.282Z,99412.84
2022-09-26T14:18:17.904Z,99405.22
2022-09-26T14:21:19.328Z,99391.84
2022-09-26T14:23:50.846Z,99391.84
2022-09-26T14:26:42.015Z,99395.25
2022-09-26T14:29:31.952Z,99384.44
2022-09-26T14:32:25.515Z,99387.63
2022-09-26T14:35:02.900Z,99376.34
2022-09-26T14:37:33.550Z,99373.78
2022-09-26T14:40:00.323Z,99375.41
2022-09-26T14:42:38.763Z,99368.72
2022-09-26T14:45:17.865Z,99377.50
2022-09-26T14:48:09.648Z,99367.41
2022-09-26T14:50:44.289Z,99361.47
2022-09-26T14:53:21.120Z,99357.06
2022-09-26T14:55:59.954Z,99357.06
2022-09-26T14:58:49.755Z,99359.28
2022-09-26T15:01:22.035Z,99377.13
2022-09-26T15:03:56.601Z,99373.56
2022-09-26T15:06:26.460Z,99381.91
2022-09-26T15:08:54.724Z,99374.66
2022-09-26T15:11:44.404Z,99367.06
2022-09-26T15:14:43.356Z,99357.16
2022-09-26T15:17:20.428Z,99355.00
2022-09-26T15:19:52.059Z,99354.69
2022-09-26T15:22:23.775Z,99354.00
2022-09-26T15:24:55.291Z,99349.31
2022-09-26T15:27:29.081Z,99343.81
2022-09-26T15:30:11.323Z,99341.66
2022-09-26T15:32:38.450Z,99348.00
2022-09-26T15:35:06.332Z,99349.81
2022-09-26T15:37:36.092Z,99341.66
2022-09-26T15:40:16.263Z,99342.31
2022-09-26T15:43:01.537Z,99330.97
2022-09-26T15:45:33.499Z,99343.63
2022-09-26T15:48:03.842Z,99342.53
2022-09-26T15:50:40.399Z,99341.53
2022-09-26T15:53:23.378Z,99339.16
2022-09-26T15:55:58.866Z,99344.09
2022-09-26T15:58:43.612Z,99345.19
2022-09-26T16:01:19.162Z,99337.47
2022-09-26T16:04:13.465Z,99347.38
2022-09-26T16:06:52.742Z,99340.81
2022-09-26T16:09:40.811Z,99343.63
2022-09-26T16:12:17.122Z,99344.22
2022-09-26T16:14:54.811Z,99353.06
2022-09-26T16:17:21.535Z,99346.94
2022-09-26T16:19:50.773Z,99347.31
2022-09-26T16:23:05.581Z,99347.94
2022-09-26T16:25:54.777Z,99342.47
2022-09-26T16:28:39.854Z,99344.81
2022-09-26T16:31:08.430Z,99352.63
2022-09-26T16:33:38.829Z,99353.56
2022-09-26T16:36:11.977Z,99355.34
2022-09-26T16:38:38.989Z,99350.69
2022-09-26T16:42:01.251Z,99350.28
2022-09-26T16:44:37.433Z,99344.50
2022-09-26T16:47:26.172Z,99349.00
2022-09-26T16:49:53.165Z,99345.56
2022-09-26T16:52:22.839Z,99336.84
2022-09-26T16:54:51.434Z,99323.44
2022-09-26T16:57:22.423Z,99335.19
2022-09-26T16:59:49.647Z,99333.41
2022-09-26T17:02:17.105Z,99335.53
2022-09-26T17:04:44.616Z,99338.19
2022-09-26T17:07:14.121Z,99334.84
2022-09-26T17:09:42.685Z,99336.16
2022-09-26T17:12:19.347Z,99343.25
2022-09-26T17:14:51.773Z,99340.19
2022-09-26T17:17:22.004Z,99342.00
2022-09-26T17:19:56.776Z,99343.25
2022-09-26T17:22:27.768Z,99344.91
2022-09-26T17:24:54.940Z,99351.06
2022-09-26T17:27:27.050Z,99355.00
2022-09-26T17:29:59.616Z,99357.22
2022-09-26T17:32:38.582Z,99363.50
2022-09-26T17:35:20.484Z,99359.03
2022-09-26T17:37:47.462Z,99364.00
2022-09-26T17:40:19.102Z,99357.72
2022-09-26T17:42:46.688Z,99352.72
2022-09-26T17:45:14.007Z,99351.59
2022-09-26T17:47:40.963Z,99347.13
2022-09-26T17:50:11.538Z,99337.34
2022-09-26T17:52:38.518Z,99347.94
2022-09-26T17:55:07.573Z,99344.88
2022-09-26T17:57:39.558Z,99350.84
2022-09-26T18:00:10.342Z,99348.63
2022-09-26T18:02:50.776Z,99349.16
2022-09-26T18:05:26.389Z,99345.09
2022-09-26T18:07:56.068Z,99344.41
2022-09-26T18:10:30.333Z,99345.25
2022-09-26T18:13:00.841Z,99338.13
2022-09-26T18:15:28.470Z,99342.28
2022-09-26T18:17:55.793Z,99341.16
2022-09-26T18:20:33.565Z,99341.44
2022-09-26T18:23:00.564Z,99339.63
2022-09-26T18:25:27.556Z,99343.50
2022-09-26T18:27:56.714Z,99347.28
2022-09-26T18:30:24.148Z,99351.13
2022-09-26T18:32:55.038Z,99349.66
2022-09-26T18:35:24.598Z,99346.22
2022-09-26T18:37:55.229Z,99343.66
2022-09-26T18:40:24.599Z,99349.34
2022-09-26T18:42:53.717Z,99351.31
2022-09-26T18:45:29.221Z,99346.66
2022-09-26T18:47:56.045Z,99349.84
2022-09-26T18:50:34.316Z,99352.34
2022-09-26T18:53:01.059Z,99347.31
2022-09-26T18:55:46.548Z,99352.34
2022-09-26T18:58:24.433Z,99356.97
2022-09-26T19:00:55.253Z,99352.03
2022-09-26T19:03:23.700Z,99346.59
2022-09-26T19:05:52.455Z,99343.53
2022-09-26T19:08:33.525Z,99340.88
2022-09-26T19:11:03.920Z,99351.28
2022-09-26T19:13:31.817Z,99361.41
2022-09-26T19:15:58.680Z,99354.50
2022-09-26T19:18:25.474Z,99357.84
2022-09-26T19:20:53.665Z,99357.41
2022-09-26T19:23:21.342Z,99355.59
2022-09-26T19:25:48.222Z,99361.22
2022-09-26T19:28:23.228Z,99365.22
2022-09-26T19:30:50.289Z,99372.19
2022-09-26T19:33:17.248Z,99374.81
2022-09-26T19:35:44.586Z,99377.75
2022-09-26T19:38:23.171Z,99375.34
2022-09-26T19:40:53.867Z,99375.78
2022-09-26T19:43:21.729Z,99370.31
2022-09-26T19:45:52.329Z,99368.09
2022-09-26T19:48:23.714Z,99364.03
2022-09-26T19:50:52.484Z,99361.31
2022-09-26T19:53:21.721Z,99356.13
2022-09-26T19:55:50.353Z,99355.00
2022-09-26T19:58:25.642Z,99354.16
2022-09-26T20:00:58.283Z,99355.72
2022-09-26T20:03:41.811Z,99345.66
2022-09-26T20:06:35.521Z,99357.59
2022-09-26T20:09:02.388Z,99351.81
2022-09-26T20:11:29.556Z,99359.13
2022-09-26T20:14:14.932Z,99362.75
2022-09-26T20:16:42.761Z,99350.22
2022-09-26T20:19:16.512Z,99356.78
2022-09-26T20:21:44.742Z,99351.81
2022-09-26T20:24:16.568Z,99349.00
2022-09-26T20:26:43.706Z,99358.16
2022-09-26T20:29:14.821Z,99349.81
2022-09-26T20:31:44.356Z,99358.34
2022-09-26T20:34:12.143Z,99364.03
2022-09-26T20:36:49.059Z,99356.13
2022-09-26T20:39:20.931Z,99365.25
2022-09-26T20:41:47.863Z,99363.31
2022-09-26T20:44:19.055Z,99355.84
2022-09-26T20:46:50.562Z,99358.03
2022-09-26T20:49:22.649Z,99352.34
2022-09-26T20:51:51.098Z,99352.22
2022-09-26T20:54:27.924Z,99354.16
2022-09-26T20:56:56.113Z,99348.19
2022-09-26T20:59:24.148Z,99357.31
2022-09-26T21:01:52.967Z,99355.66
2022-09-26T21:04:24.279Z,99355.28
2022-09-26T21:06:51.033Z,99355.72
2022-09-26T21:09:19.847Z,99345.88
2022-09-26T21:11:48.964Z,99344.19
2022-09-26T21:14:16.849Z,99340.16
2022-09-26T21:16:53.285Z,99339.22
2022-09-26T21:19:24.844Z,99333.66
2022-09-26T21:21:51.800Z,99328.81
2022-09-26T21:24:28.838Z,99335.69
2022-09-26T21:26:57.866Z,99328.31
2022-09-26T21:29:24.698Z,99321.19
2022-09-26T21:31:54.099Z,99320.03
2022-09-26T21:34:24.196Z,99321.13
2022-09-26T21:37:03.692Z,99312.94
2022-09-26T21:39:31.357Z,99310.31
2022-09-26T21:42:02.928Z,99301.00
2022-09-26T21:44:41.523Z,99301.84
2022-09-26T21:47:08.622Z,99304.22
2022-09-26T21:49:35.468Z,99304.22
2022-09-26T21:52:27.818Z,99310.19
2022-09-26T21:54:57.964Z,99317.31
2022-09-26T21:57:31.601Z,99311.19
2022-09-26T21:59:59.002Z,99311.03
2022-09-26T22:02:26.332Z,99310.09
2022-09-26T22:04:54.708Z,99313.00
2022-09-26T22:07:21.670Z,99318.13
2022-09-26T22:09:48.435Z,99301.88
2022-09-26T22:12:15.277Z,99300.91
2022-09-26T22:14:42.532Z,99295.28
2022-09-26T22:17:09.726Z,99293.16
2022-09-26T22:19:36.599Z,99286.66
2022-09-26T22:22:03.684Z,99285.69
2022-09-26T22:24:30.547Z,99294.47
2022-09-26T22:27:00.489Z,99279.69
2022-09-26T22:29:27.563Z,99282.03
2022-09-26T22:31:57.068Z,99278.41
2022-09-26T22:34:23.934Z,99272.00
2022-09-26T22:36:51.063Z,99265.22
2022-09-26T22:39:18.011Z,99263.81
2022-09-26T22:41:44.863Z,99267.69
2022-09-26T22:44:12.103Z,99253.06
2022-09-26T22:46:39.100Z,99248.47
2022-09-26T22:49:06.049Z,99237.59
2022-09-26T22:51:33.243Z,99225.22
2022-09-26T22:54:00.181Z,99227.31
2022-09-26T22:56:26.943Z,99229.25
2022-09-26T22:58:53.946Z,99227.69
2022-09-26T23:01:23.744Z,99240.22
2022-09-26T23:03:52.943Z,99229.63
2022-09-26T23:06:21.516Z,99233.81
2022-09-26T23:08:48.766Z,99227.00
2022-09-26T23:11:18.440Z,99217.38
2022-09-26T23:13:45.996Z,99207.78
2022-09-26T23:16:17.184Z,99200.69
2022-09-26T23:18:44.918Z,99207.88
2022-09-26T23:21:17.374Z,99205.38
2022-09-26T23:23:46.619Z,99202.19
2022-09-26T23:26:23.374Z,99200.31
2022-09-26T23:28:51.439Z,99196.44
2022-09-26T23:31:19.338Z,99200.13
2022-09-26T23:33:46.821Z,99195.81
2022-09-26T23:36:13.822Z,99191.94
2022-09-26T23:38:41.201Z,99184.84
2022-09-26T23:41:09.992Z,99186.22
2022-09-26T23:43:37.439Z,99189.66
2022-09-26T23:46:05.004Z,99187.09
2022-09-26T23:48:31.887Z,99185.13
2022-09-26T23:50:58.790Z,99176.22
2022-09-26T23:53:26.012Z,99181.97
2022-09-26T23:55:53.297Z,99174.34
2022-09-26T23:58:20.084Z,99168.34
